sensor_id;sensor_type;location;lat;lon;timestamp;temperature;humidity
20885;DHT22;10602;48.000;9.654;2022-07-22T00:02:20;18.40;99.90
20885;DHT22;10602;48.000;9.654;2022-07-22T00:04:48;18.50;99.90
20885;DHT22;10602;48.000;9.654;2022-07-22T00:07:15;18.40;99.90
20885;DHT22;10602;48.000;9.654;2022-07-22T00:09:43;18.40;99.90
20885;DHT22;10602;48.000;9.654;2022-07-22T00:12:10;18.40;99.90
20885;DHT22;10602;48.000;9.654;2022-07-22T00:14:38;18.40;99.90
20885;DHT22;10602;48.000;9.654;2022-07-22T00:17:05;18.30;99.90
20885;DHT22;10602;48.000;9.654;2022-07-22T00:19:34;18.30;99.90
20885;DHT22;10602;48.000;9.654;2022-07-22T00:22:01;18.30;99.90
20885;DHT22;10602;48.000;9.654;2022-07-22T00:24:29;18.30;99.90
20885;DHT22;10602;48.000;9.654;2022-07-22T00:26:57;18.30;99.90
20885;DHT22;10602;48.000;9.654;2022-07-22T00:29:24;18.20;99.90
20885;DHT22;10602;48.000;9.654;2022-07-22T00:31:52;18.20;99.90
20885;DHT22;10602;48.000;9.654;2022-07-22T00:34:19;18.20;99.90
20885;DHT22;10602;48.000;9.654;2022-07-22T00:36:47;18.20;99.90
20885;DHT22;10602;48.000;9.654;2022-07-22T00:39:14;18.10;99.90
20885;DHT22;10602;48.000;9.654;2022-07-22T00:41:42;18.10;99.90
20885;DHT22;10602;48.000;9.654;2022-07-22T00:44:10;18.10;99.90
20885;DHT22;10602;48.000;9.654;2022-07-22T00:46:37;18.00;99.90
20885;DHT22;10602;48.000;9.654;2022-07-22T00:49:06;18.00;99.90
20885;DHT22;10602;48.000;9.654;2022-07-22T00:51:34;17.90;99.90
20885;DHT22;10602;48.000;9.654;2022-07-22T00:54:05;17.90;99.90
20885;DHT22;10602;48.000;9.654;2022-07-22T00:56:33;17.90;99.90
20885;DHT22;10602;48.000;9.654;2022-07-22T00:59:04;17.90;99.90
20885;DHT22;10602;48.000;9.654;2022-07-22T01:01:31;17.90;99.90
20885;DHT22;10602;48.000;9.654;2022-07-22T01:03:59;17.80;99.90
20885;DHT22;10602;48.000;9.654;2022-07-22T01:06:28;17.80;99.90
20885;DHT22;10602;48.000;9.654;2022-07-22T01:08:56;17.80;99.90
20885;DHT22;10602;48.000;9.654;2022-07-22T01:11:24;17.70;99.90
20885;DHT22;10602;48.000;9.654;2022-07-22T01:13:53;17.70;99.90
20885;DHT22;10602;48.000;9.654;2022-07-22T01:16:21;17.70;99.90
20885;DHT22;10602;48.000;9.654;2022-07-22T01:18:49;17.60;99.90
20885;DHT22;10602;48.000;9.654;2022-07-22T01:21:17;17.70;99.90
20885;DHT22;10602;48.000;9.654;2022-07-22T01:23:46;17.60;99.90
20885;DHT22;10602;48.000;9.654;2022-07-22T01:26:14;17.60;99.90
20885;DHT22;10602;48.000;9.654;2022-07-22T01:28:42;17.60;99.90
20885;DHT22;10602;48.000;9.654;2022-07-22T01:31:10;17.50;99.90
20885;DHT22;10602;48.000;9.654;2022-07-22T01:33:37;17.50;99.90
20885;DHT22;10602;48.000;9.654;2022-07-22T01:36:06;17.50;99.90
20885;DHT22;10602;48.000;9.654;2022-07-22T01:38:34;17.50;99.90
20885;DHT22;10602;48.000;9.654;2022-07-22T01:41:01;17.50;99.90
20885;DHT22;10602;48.000;9.654;2022-07-22T01:43:29;17.50;99.90
20885;DHT22;10602;48.000;9.654;2022-07-22T01:45:57;17.50;99.90
20885;DHT22;10602;48.000;9.654;2022-07-22T01:48:25;17.40;99.90
20885;DHT22;10602;48.000;9.654;2022-07-22T01:50:52;17.40;99.90
20885;DHT22;10602;48.000;9.654;2022-07-22T01:53:20;17.40;99.90
20885;DHT22;10602;48.000;9.654;2022-07-22T01:55:48;17.30;99.90
20885;DHT22;10602;48.000;9.654;2022-07-22T01:58:15;17.30;99.90
20885;DHT22;10602;48.000;9.654;2022-07-22T02:00:43;17.30;99.90
20885;DHT22;10602;48.000;9.654;2022-07-22T02:03:11;17.30;99.90
20885;DHT22;10602;48.000;9.654;2022-07-22T02:05:39;17.30;99.90
20885;DHT22;10602;48.000;9.654;2022-07-22T02:08:09;17.20;99.90
20885;DHT22;10602;48.000;9.654;2022-07-22T02:10:37;17.10;99.90
20885;DHT22;10602;48.000;9.654;2022-07-22T02:13:05;17.10;99.90
20885;DHT22;10602;48.000;9.654;2022-07-22T02:15:33;17.00;99.90
20885;DHT22;10602;48.000;9.654;2022-07-22T02:18:08;17.00;99.90
20885;DHT22;10602;48.000;9.654;2022-07-22T02:20:29;17.00;99.90
20885;DHT22;10602;48.000;9.654;2022-07-22T02:22:57;17.00;99.90
20885;DHT22;10602;48.000;9.654;2022-07-22T02:25:24;17.00;99.90
20885;DHT22;10602;48.000;9.654;2022-07-22T02:27:52;17.00;99.90
20885;DHT22;10602;48.000;9.654;2022-07-22T02:30:19;17.00;99.90
20885;DHT22;10602;48.000;9.654;2022-07-22T02:32:47;16.90;99.90
20885;DHT22;10602;48.000;9.654;2022-07-22T02:35:14;16.90;99.90
20885;DHT22;10602;48.000;9.654;2022-07-22T02:37:42;16.90;99.90
20885;DHT22;10602;48.000;9.654;2022-07-22T02:40:10;16.90;99.90
20885;DHT22;10602;48.000;9.654;2022-07-22T02:42:37;16.80;99.90
20885;DHT22;10602;48.000;9.654;2022-07-22T02:45:05;16.80;99.90
20885;DHT22;10602;48.000;9.654;2022-07-22T02:47:33;16.80;99.90
20885;DHT22;10602;48.000;9.654;2022-07-22T02:50:00;16.80;99.90
20885;DHT22;10602;48.000;9.654;2022-07-22T02:52:28;16.70;99.90
20885;DHT22;10602;48.000;9.654;2022-07-22T02:54:55;16.80;99.90
20885;DHT22;10602;48.000;9.654;2022-07-22T02:57:23;16.80;99.90
20885;DHT22;10602;48.000;9.654;2022-07-22T02:59:51;16.80;99.90
20885;DHT22;10602;48.000;9.654;2022-07-22T03:02:19;16.70;99.90
20885;DHT22;10602;48.000;9.654;2022-07-22T03:04:46;16.70;99.90
20885;DHT22;10602;48.000;9.654;2022-07-22T03:07:14;16.70;99.90
20885;DHT22;10602;48.000;9.654;2022-07-22T03:09:41;16.70;99.90
20885;DHT22;10602;48.000;9.654;2022-07-22T03:12:10;16.70;99.90
20885;DHT22;10602;48.000;9.654;2022-07-22T03:14:37;16.70;99.90
20885;DHT22;10602;48.000;9.654;2022-07-22T03:17:05;16.70;99.90
20885;DHT22;10602;48.000;9.654;2022-07-22T03:19:32;16.70;99.90
20885;DHT22;10602;48.000;9.654;2022-07-22T03:22:00;16.70;99.90
20885;DHT22;10602;48.000;9.654;2022-07-22T03:24:27;16.70;99.90
20885;DHT22;10602;48.000;9.654;2022-07-22T03:26:55;16.70;99.90
20885;DHT22;10602;48.000;9.654;2022-07-22T03:29:22;16.70;99.90
20885;DHT22;10602;48.000;9.654;2022-07-22T03:31:50;16.60;99.90
20885;DHT22;10602;48.000;9.654;2022-07-22T03:34:17;16.60;99.90
20885;DHT22;10602;48.000;9.654;2022-07-22T03:36:45;16.60;99.90
20885;DHT22;10602;48.000;9.654;2022-07-22T03:39:12;16.50;99.90
20885;DHT22;10602;48.000;9.654;2022-07-22T03:41:39;16.40;99.90
20885;DHT22;10602;48.000;9.654;2022-07-22T03:44:07;16.40;99.90
20885;DHT22;10602;48.000;9.654;2022-07-22T03:46:35;16.40;99.90
20885;DHT22;10602;48.000;9.654;2022-07-22T03:49:02;16.40;99.90
20885;DHT22;10602;48.000;9.654;2022-07-22T03:51:30;16.30;99.90
20885;DHT22;10602;48.000;9.654;2022-07-22T03:53:58;16.30;99.90
20885;DHT22;10602;48.000;9.654;2022-07-22T03:56:25;16.20;99.90
20885;DHT22;10602;48.000;9.654;2022-07-22T03:58:53;16.20;99.90
20885;DHT22;10602;48.000;9.654;2022-07-22T04:01:20;16.10;99.90
20885;DHT22;10602;48.000;9.654;2022-07-22T04:03:48;16.20;99.90
20885;DHT22;10602;48.000;9.654;2022-07-22T04:06:16;16.20;99.90
20885;DHT22;10602;48.000;9.654;2022-07-22T04:08:43;16.20;99.90
20885;DHT22;10602;48.000;9.654;2022-07-22T04:11:11;16.30;99.90
20885;DHT22;10602;48.000;9.654;2022-07-22T04:13:38;16.30;99.90
20885;DHT22;10602;48.000;9.654;2022-07-22T04:16:06;16.30;99.90
20885;DHT22;10602;48.000;9.654;2022-07-22T04:18:33;16.30;99.90
20885;DHT22;10602;48.000;9.654;2022-07-22T04:21:01;16.30;99.90
20885;DHT22;10602;48.000;9.654;2022-07-22T04:23:29;16.30;99.90
20885;DHT22;10602;48.000;9.654;2022-07-22T04:25:56;16.40;99.90
20885;DHT22;10602;48.000;9.654;2022-07-22T04:28:24;16.50;99.90
20885;DHT22;10602;48.000;9.654;2022-07-22T04:30:51;16.50;99.90
20885;DHT22;10602;48.000;9.654;2022-07-22T04:33:19;16.60;99.90
20885;DHT22;10602;48.000;9.654;2022-07-22T04:35:46;16.70;99.90
20885;DHT22;10602;48.000;9.654;2022-07-22T04:38:18;16.80;99.90
20885;DHT22;10602;48.000;9.654;2022-07-22T04:40:45;16.80;99.90
20885;DHT22;10602;48.000;9.654;2022-07-22T04:43:13;16.90;99.90
20885;DHT22;10602;48.000;9.654;2022-07-22T04:45:40;17.00;99.90
20885;DHT22;10602;48.000;9.654;2022-07-22T04:48:08;17.10;99.90
20885;DHT22;10602;48.000;9.654;2022-07-22T04:50:38;17.20;99.90
20885;DHT22;10602;48.000;9.654;2022-07-22T04:53:06;17.30;99.90
20885;DHT22;10602;48.000;9.654;2022-07-22T04:55:33;17.40;99.90
20885;DHT22;10602;48.000;9.654;2022-07-22T04:58:01;17.50;99.90
20885;DHT22;10602;48.000;9.654;2022-07-22T05:00:28;17.60;99.90
20885;DHT22;10602;48.000;9.654;2022-07-22T05:02:56;17.70;99.90
20885;DHT22;10602;48.000;9.654;2022-07-22T05:05:24;17.90;99.90
20885;DHT22;10602;48.000;9.654;2022-07-22T05:07:51;18.00;99.90
20885;DHT22;10602;48.000;9.654;2022-07-22T05:10:19;18.20;99.90
20885;DHT22;10602;48.000;9.654;2022-07-22T05:12:46;18.30;99.90
20885;DHT22;10602;48.000;9.654;2022-07-22T05:15:14;18.40;99.90
20885;DHT22;10602;48.000;9.654;2022-07-22T05:17:41;18.50;99.90
20885;DHT22;10602;48.000;9.654;2022-07-22T05:20:09;18.60;99.90
20885;DHT22;10602;48.000;9.654;2022-07-22T05:22:37;18.70;99.90
20885;DHT22;10602;48.000;9.654;2022-07-22T05:25:05;18.90;99.90
20885;DHT22;10602;48.000;9.654;2022-07-22T05:27:33;19.10;99.90
20885;DHT22;10602;48.000;9.654;2022-07-22T05:30:00;19.20;99.90
20885;DHT22;10602;48.000;9.654;2022-07-22T05:32:28;19.40;99.90
20885;DHT22;10602;48.000;9.654;2022-07-22T05:34:55;19.50;99.90
20885;DHT22;10602;48.000;9.654;2022-07-22T05:37:23;19.60;99.90
20885;DHT22;10602;48.000;9.654;2022-07-22T05:39:50;19.80;99.90
20885;DHT22;10602;48.000;9.654;2022-07-22T05:42:18;19.90;99.90
20885;DHT22;10602;48.000;9.654;2022-07-22T05:44:45;20.00;99.90
20885;DHT22;10602;48.000;9.654;2022-07-22T05:47:13;20.10;99.90
20885;DHT22;10602;48.000;9.654;2022-07-22T05:49:40;20.20;99.90
20885;DHT22;10602;48.000;9.654;2022-07-22T05:52:08;20.40;99.90
20885;DHT22;10602;48.000;9.654;2022-07-22T05:54:36;20.40;99.90
20885;DHT22;10602;48.000;9.654;2022-07-22T05:57:03;20.60;99.90
20885;DHT22;10602;48.000;9.654;2022-07-22T05:59:31;20.70;99.90
20885;DHT22;10602;48.000;9.654;2022-07-22T06:01:58;20.80;99.90
20885;DHT22;10602;48.000;9.654;2022-07-22T06:04:26;21.00;99.90
20885;DHT22;10602;48.000;9.654;2022-07-22T06:06:54;21.30;99.90
20885;DHT22;10602;48.000;9.654;2022-07-22T06:09:21;21.40;99.90
20885;DHT22;10602;48.000;9.654;2022-07-22T06:11:49;21.50;99.90
20885;DHT22;10602;48.000;9.654;2022-07-22T06:14:16;21.70;99.90
20885;DHT22;10602;48.000;9.654;2022-07-22T06:16:44;21.90;99.90
20885;DHT22;10602;48.000;9.654;2022-07-22T06:19:11;22.10;99.90
20885;DHT22;10602;48.000;9.654;2022-07-22T06:21:39;22.30;99.90
20885;DHT22;10602;48.000;9.654;2022-07-22T06:24:06;22.50;99.90
20885;DHT22;10602;48.000;9.654;2022-07-22T06:26:34;22.60;99.90
20885;DHT22;10602;48.000;9.654;2022-07-22T06:29:01;22.70;99.90
20885;DHT22;10602;48.000;9.654;2022-07-22T06:31:29;22.80;99.90
20885;DHT22;10602;48.000;9.654;2022-07-22T06:33:57;22.90;99.90
20885;DHT22;10602;48.000;9.654;2022-07-22T06:36:24;23.10;99.90
20885;DHT22;10602;48.000;9.654;2022-07-22T06:38:52;23.20;99.90
20885;DHT22;10602;48.000;9.654;2022-07-22T06:41:19;23.30;99.90
20885;DHT22;10602;48.000;9.654;2022-07-22T06:43:47;23.50;99.90
20885;DHT22;10602;48.000;9.654;2022-07-22T06:46:14;23.70;99.90
20885;DHT22;10602;48.000;9.654;2022-07-22T06:48:42;23.90;99.90
20885;DHT22;10602;48.000;9.654;2022-07-22T06:51:10;24.00;99.90
20885;DHT22;10602;48.000;9.654;2022-07-22T06:53:37;24.10;99.90
20885;DHT22;10602;48.000;9.654;2022-07-22T06:56:05;24.30;99.90
20885;DHT22;10602;48.000;9.654;2022-07-22T06:58:32;24.60;98.60
20885;DHT22;10602;48.000;9.654;2022-07-22T07:01:00;24.70;97.20
20885;DHT22;10602;48.000;9.654;2022-07-22T07:03:27;24.70;96.10
20885;DHT22;10602;48.000;9.654;2022-07-22T07:05:55;24.90;94.80
20885;DHT22;10602;48.000;9.654;2022-07-22T07:08:22;24.90;94.70
20885;DHT22;10602;48.000;9.654;2022-07-22T07:10:50;25.00;93.80
20885;DHT22;10602;48.000;9.654;2022-07-22T07:13:17;25.20;94.60
20885;DHT22;10602;48.000;9.654;2022-07-22T07:15:45;25.50;92.60
20885;DHT22;10602;48.000;9.654;2022-07-22T07:18:12;25.60;91.80
20885;DHT22;10602;48.000;9.654;2022-07-22T07:20:40;25.60;91.20
20885;DHT22;10602;48.000;9.654;2022-07-22T07:23:07;25.70;90.40
20885;DHT22;10602;48.000;9.654;2022-07-22T07:25:35;25.70;90.80
20885;DHT22;10602;48.000;9.654;2022-07-22T07:28:03;25.70;90.30
20885;DHT22;10602;48.000;9.654;2022-07-22T07:30:30;25.80;89.70
20885;DHT22;10602;48.000;9.654;2022-07-22T07:32:58;25.90;89.90
20885;DHT22;10602;48.000;9.654;2022-07-22T07:35:27;26.10;89.20
20885;DHT22;10602;48.000;9.654;2022-07-22T07:37:54;26.30;89.20
20885;DHT22;10602;48.000;9.654;2022-07-22T07:40:22;26.50;86.60
20885;DHT22;10602;48.000;9.654;2022-07-22T07:42:49;26.70;86.10
20885;DHT22;10602;48.000;9.654;2022-07-22T07:45:17;26.60;83.70
20885;DHT22;10602;48.000;9.654;2022-07-22T07:47:44;26.50;85.10
20885;DHT22;10602;48.000;9.654;2022-07-22T07:50:12;26.60;84.60
20885;DHT22;10602;48.000;9.654;2022-07-22T07:52:42;26.90;82.70
20885;DHT22;10602;48.000;9.654;2022-07-22T07:55:11;27.00;82.90
20885;DHT22;10602;48.000;9.654;2022-07-22T07:57:39;27.20;80.70
20885;DHT22;10602;48.000;9.654;2022-07-22T08:00:09;27.30;80.10
20885;DHT22;10602;48.000;9.654;2022-07-22T08:02:37;27.40;78.80
20885;DHT22;10602;48.000;9.654;2022-07-22T08:05:04;27.50;79.20
20885;DHT22;10602;48.000;9.654;2022-07-22T08:07:32;27.50;79.30
20885;DHT22;10602;48.000;9.654;2022-07-22T08:10:00;27.70;79.00
20885;DHT22;10602;48.000;9.654;2022-07-22T08:12:27;27.90;76.50
20885;DHT22;10602;48.000;9.654;2022-07-22T08:14:55;27.90;77.20
20885;DHT22;10602;48.000;9.654;2022-07-22T08:17:22;28.10;77.40
20885;DHT22;10602;48.000;9.654;2022-07-22T08:19:50;28.20;76.50
20885;DHT22;10602;48.000;9.654;2022-07-22T08:22:17;28.40;74.50
20885;DHT22;10602;48.000;9.654;2022-07-22T08:24:45;28.40;73.60
20885;DHT22;10602;48.000;9.654;2022-07-22T08:27:13;28.50;74.50
20885;DHT22;10602;48.000;9.654;2022-07-22T08:29:40;28.70;73.50
20885;DHT22;10602;48.000;9.654;2022-07-22T08:32:08;28.80;72.70
20885;DHT22;10602;48.000;9.654;2022-07-22T08:34:35;29.10;71.80
20885;DHT22;10602;48.000;9.654;2022-07-22T08:37:03;29.10;70.90
20885;DHT22;10602;48.000;9.654;2022-07-22T08:39:30;29.40;69.80
20885;DHT22;10602;48.000;9.654;2022-07-22T08:42:00;29.70;71.10
20885;DHT22;10602;48.000;9.654;2022-07-22T08:44:31;29.70;68.60
20885;DHT22;10602;48.000;9.654;2022-07-22T08:47:00;29.70;67.50
20885;DHT22;10602;48.000;9.654;2022-07-22T08:49:28;29.50;67.70
20885;DHT22;10602;48.000;9.654;2022-07-22T08:51:55;29.70;68.70
20885;DHT22;10602;48.000;9.654;2022-07-22T08:54:23;30.10;67.80
20885;DHT22;10602;48.000;9.654;2022-07-22T08:56:51;30.30;65.90
20885;DHT22;10602;48.000;9.654;2022-07-22T08:59:19;30.30;65.90
20885;DHT22;10602;48.000;9.654;2022-07-22T09:02:09;30.30;64.90
20885;DHT22;10602;48.000;9.654;2022-07-22T09:05:00;30.30;65.40
20885;DHT22;10602;48.000;9.654;2022-07-22T09:07:29;29.90;65.60
20885;DHT22;10602;48.000;9.654;2022-07-22T09:09:58;30.10;64.70
20885;DHT22;10602;48.000;9.654;2022-07-22T09:12:26;30.20;65.10
20885;DHT22;10602;48.000;9.654;2022-07-22T09:14:59;30.30;65.30
20885;DHT22;10602;48.000;9.654;2022-07-22T09:17:37;30.30;65.20
20885;DHT22;10602;48.000;9.654;2022-07-22T09:20:16;30.30;65.50
20885;DHT22;10602;48.000;9.654;2022-07-22T09:22:46;30.50;65.20
20885;DHT22;10602;48.000;9.654;2022-07-22T09:25:26;30.70;64.00
20885;DHT22;10602;48.000;9.654;2022-07-22T09:27:56;30.90;63.60
20885;DHT22;10602;48.000;9.654;2022-07-22T09:30:25;31.20;64.60
20885;DHT22;10602;48.000;9.654;2022-07-22T09:32:54;31.50;63.20
20885;DHT22;10602;48.000;9.654;2022-07-22T09:35:23;31.20;61.70
20885;DHT22;10602;48.000;9.654;2022-07-22T09:38:05;31.70;63.10
20885;DHT22;10602;48.000;9.654;2022-07-22T09:40:31;32.10;60.80
20885;DHT22;10602;48.000;9.654;2022-07-22T09:43:07;32.30;58.70
20885;DHT22;10602;48.000;9.654;2022-07-22T09:45:32;32.70;56.40
20885;DHT22;10602;48.000;9.654;2022-07-22T09:48:01;32.80;55.40
20885;DHT22;10602;48.000;9.654;2022-07-22T09:50:30;32.80;54.40
20885;DHT22;10602;48.000;9.654;2022-07-22T09:53:00;32.80;56.40
20885;DHT22;10602;48.000;9.654;2022-07-22T09:55:29;33.00;56.70
20885;DHT22;10602;48.000;9.654;2022-07-22T09:57:57;33.30;55.70
20885;DHT22;10602;48.000;9.654;2022-07-22T10:00:27;33.50;53.30
20885;DHT22;10602;48.000;9.654;2022-07-22T10:02:59;33.80;53.10
20885;DHT22;10602;48.000;9.654;2022-07-22T10:05:29;33.90;52.90
20885;DHT22;10602;48.000;9.654;2022-07-22T10:07:57;34.30;50.50
20885;DHT22;10602;48.000;9.654;2022-07-22T10:10:28;34.80;50.90
20885;DHT22;10602;48.000;9.654;2022-07-22T10:12:57;34.90;48.90
20885;DHT22;10602;48.000;9.654;2022-07-22T10:15:26;35.20;46.60
20885;DHT22;10602;48.000;9.654;2022-07-22T10:17:56;35.20;46.00
20885;DHT22;10602;48.000;9.654;2022-07-22T10:20:26;35.50;44.20
20885;DHT22;10602;48.000;9.654;2022-07-22T10:23:01;35.50;45.80
20885;DHT22;10602;48.000;9.654;2022-07-22T10:25:32;35.50;45.50
20885;DHT22;10602;48.000;9.654;2022-07-22T10:28:02;35.80;46.00
20885;DHT22;10602;48.000;9.654;2022-07-22T10:30:33;35.80;44.80
20885;DHT22;10602;48.000;9.654;2022-07-22T10:33:13;36.10;44.60
20885;DHT22;10602;48.000;9.654;2022-07-22T10:36:02;36.20;44.40
20885;DHT22;10602;48.000;9.654;2022-07-22T10:38:31;36.10;44.50
20885;DHT22;10602;48.000;9.654;2022-07-22T10:41:06;35.80;44.20
20885;DHT22;10602;48.000;9.654;2022-07-22T10:46:10;36.00;45.50
20885;DHT22;10602;48.000;9.654;2022-07-22T10:51:16;36.90;43.20
20885;DHT22;10602;48.000;9.654;2022-07-22T10:56:32;36.60;42.60
20885;DHT22;10602;48.000;9.654;2022-07-22T10:59:15;37.00;42.90
20885;DHT22;10602;48.000;9.654;2022-07-22T11:01:48;37.40;40.40
20885;DHT22;10602;48.000;9.654;2022-07-22T11:04:18;37.40;40.50
20885;DHT22;10602;48.000;9.654;2022-07-22T11:06:50;37.20;39.20
20885;DHT22;10602;48.000;9.654;2022-07-22T11:09:19;37.30;40.50
20885;DHT22;10602;48.000;9.654;2022-07-22T11:11:52;37.50;40.70
20885;DHT22;10602;48.000;9.654;2022-07-22T11:14:27;37.50;38.20
20885;DHT22;10602;48.000;9.654;2022-07-22T11:17:05;37.20;38.80
20885;DHT22;10602;48.000;9.654;2022-07-22T11:19:33;37.30;38.00
20885;DHT22;10602;48.000;9.654;2022-07-22T11:22:05;37.40;37.70
20885;DHT22;10602;48.000;9.654;2022-07-22T11:24:33;37.50;37.00
20885;DHT22;10602;48.000;9.654;2022-07-22T11:27:02;37.30;38.30
20885;DHT22;10602;48.000;9.654;2022-07-22T11:29:38;37.90;37.70
20885;DHT22;10602;48.000;9.654;2022-07-22T11:32:14;38.40;38.50
20885;DHT22;10602;48.000;9.654;2022-07-22T11:34:44;38.80;37.00
20885;DHT22;10602;48.000;9.654;2022-07-22T11:37:17;39.50;36.00
20885;DHT22;10602;48.000;9.654;2022-07-22T11:39:45;39.00;36.20
20885;DHT22;10602;48.000;9.654;2022-07-22T11:42:13;39.30;35.40
20885;DHT22;10602;48.000;9.654;2022-07-22T11:44:41;39.00;34.20
20885;DHT22;10602;48.000;9.654;2022-07-22T11:47:09;39.20;33.30
20885;DHT22;10602;48.000;9.654;2022-07-22T11:49:38;39.20;32.40
20885;DHT22;10602;48.000;9.654;2022-07-22T11:52:09;38.80;33.30
20885;DHT22;10602;48.000;9.654;2022-07-22T11:54:42;38.90;34.00
20885;DHT22;10602;48.000;9.654;2022-07-22T11:57:11;38.70;34.60
20885;DHT22;10602;48.000;9.654;2022-07-22T11:59:39;38.70;34.00
20885;DHT22;10602;48.000;9.654;2022-07-22T12:02:07;38.40;34.80
20885;DHT22;10602;48.000;9.654;2022-07-22T12:04:37;38.60;33.40
20885;DHT22;10602;48.000;9.654;2022-07-22T12:07:05;38.70;34.10
20885;DHT22;10602;48.000;9.654;2022-07-22T12:09:35;39.30;32.90
20885;DHT22;10602;48.000;9.654;2022-07-22T12:12:04;40.10;33.80
20885;DHT22;10602;48.000;9.654;2022-07-22T12:14:33;40.70;31.50
20885;DHT22;10602;48.000;9.654;2022-07-22T12:17:07;40.70;31.10
20885;DHT22;10602;48.000;9.654;2022-07-22T12:19:37;40.60;30.80
20885;DHT22;10602;48.000;9.654;2022-07-22T12:22:10;40.50;31.10
20885;DHT22;10602;48.000;9.654;2022-07-22T12:24:44;40.10;31.30
20885;DHT22;10602;48.000;9.654;2022-07-22T12:27:14;40.10;30.50
20885;DHT22;10602;48.000;9.654;2022-07-22T12:29:48;39.80;29.40
20885;DHT22;10602;48.000;9.654;2022-07-22T12:32:17;39.40;29.00
20885;DHT22;10602;48.000;9.654;2022-07-22T12:34:47;39.40;30.10
20885;DHT22;10602;48.000;9.654;2022-07-22T12:37:24;39.40;29.70
20885;DHT22;10602;48.000;9.654;2022-07-22T12:40:09;39.40;30.90
20885;DHT22;10602;48.000;9.654;2022-07-22T12:42:59;39.70;29.60
20885;DHT22;10602;48.000;9.654;2022-07-22T12:45:18;39.80;29.50
20885;DHT22;10602;48.000;9.654;2022-07-22T12:47:57;39.00;29.10
20885;DHT22;10602;48.000;9.654;2022-07-22T12:50:31;38.30;29.70
20885;DHT22;10602;48.000;9.654;2022-07-22T12:53:08;38.00;29.90
20885;DHT22;10602;48.000;9.654;2022-07-22T12:55:40;37.30;29.40
20885;DHT22;10602;48.000;9.654;2022-07-22T12:58:09;37.70;30.00
20885;DHT22;10602;48.000;9.654;2022-07-22T13:00:39;38.30;29.20
20885;DHT22;10602;48.000;9.654;2022-07-22T13:03:08;38.30;28.40
20885;DHT22;10602;48.000;9.654;2022-07-22T13:05:36;37.80;29.00
20885;DHT22;10602;48.000;9.654;2022-07-22T13:08:04;38.00;29.30
20885;DHT22;10602;48.000;9.654;2022-07-22T13:10:32;37.80;30.00
20885;DHT22;10602;48.000;9.654;2022-07-22T13:13:00;38.20;31.50
20885;DHT22;10602;48.000;9.654;2022-07-22T13:15:27;38.20;33.10
20885;DHT22;10602;48.000;9.654;2022-07-22T13:17:55;38.50;32.80
20885;DHT22;10602;48.000;9.654;2022-07-22T13:20:22;39.00;32.60
20885;DHT22;10602;48.000;9.654;2022-07-22T13:22:50;38.60;30.40
20885;DHT22;10602;48.000;9.654;2022-07-22T13:25:18;38.50;30.50
20885;DHT22;10602;48.000;9.654;2022-07-22T13:27:45;38.40;29.40
20885;DHT22;10602;48.000;9.654;2022-07-22T13:30:13;38.00;29.90
20885;DHT22;10602;48.000;9.654;2022-07-22T13:32:41;37.80;29.70
20885;DHT22;10602;48.000;9.654;2022-07-22T13:35:08;37.50;29.30
20885;DHT22;10602;48.000;9.654;2022-07-22T13:37:36;37.20;30.20
20885;DHT22;10602;48.000;9.654;2022-07-22T13:40:04;37.20;31.30
20885;DHT22;10602;48.000;9.654;2022-07-22T13:42:32;37.10;31.10
20885;DHT22;10602;48.000;9.654;2022-07-22T13:44:59;37.00;30.80
20885;DHT22;10602;48.000;9.654;2022-07-22T13:47:27;37.00;30.90
20885;DHT22;10602;48.000;9.654;2022-07-22T13:49:55;37.00;29.70
20885;DHT22;10602;48.000;9.654;2022-07-22T13:52:23;36.80;29.90
20885;DHT22;10602;48.000;9.654;2022-07-22T13:54:51;36.80;30.00
20885;DHT22;10602;48.000;9.654;2022-07-22T13:57:19;36.30;29.90
20885;DHT22;10602;48.000;9.654;2022-07-22T13:59:47;35.60;30.40
20885;DHT22;10602;48.000;9.654;2022-07-22T14:02:15;35.50;30.20
20885;DHT22;10602;48.000;9.654;2022-07-22T14:04:42;35.30;30.60
20885;DHT22;10602;48.000;9.654;2022-07-22T14:07:10;35.20;30.00
20885;DHT22;10602;48.000;9.654;2022-07-22T14:09:37;35.20;30.30
20885;DHT22;10602;48.000;9.654;2022-07-22T14:12:05;34.70;29.70
20885;DHT22;10602;48.000;9.654;2022-07-22T14:14:33;34.90;30.90
20885;DHT22;10602;48.000;9.654;2022-07-22T14:17:00;35.10;30.00
20885;DHT22;10602;48.000;9.654;2022-07-22T14:27:47;34.50;30.20
20885;DHT22;10602;48.000;9.654;2022-07-22T14:30:32;34.40;30.40
20885;DHT22;10602;48.000;9.654;2022-07-22T14:33:00;34.30;30.20
20885;DHT22;10602;48.000;9.654;2022-07-22T14:35:28;33.90;30.40
20885;DHT22;10602;48.000;9.654;2022-07-22T14:37:55;33.90;31.80
20885;DHT22;10602;48.000;9.654;2022-07-22T14:40:23;34.20;31.60
20885;DHT22;10602;48.000;9.654;2022-07-22T14:42:51;34.20;30.70
20885;DHT22;10602;48.000;9.654;2022-07-22T14:45:18;34.10;30.20
20885;DHT22;10602;48.000;9.654;2022-07-22T14:47:46;34.10;30.90
20885;DHT22;10602;48.000;9.654;2022-07-22T14:50:13;34.30;32.20
20885;DHT22;10602;48.000;9.654;2022-07-22T14:52:41;34.40;31.80
20885;DHT22;10602;48.000;9.654;2022-07-22T14:55:08;34.30;31.70
20885;DHT22;10602;48.000;9.654;2022-07-22T14:57:36;34.30;32.10
20885;DHT22;10602;48.000;9.654;2022-07-22T15:00:04;34.40;32.50
20885;DHT22;10602;48.000;9.654;2022-07-22T15:02:31;34.60;32.20
20885;DHT22;10602;48.000;9.654;2022-07-22T15:04:59;34.70;31.90
20885;DHT22;10602;48.000;9.654;2022-07-22T15:07:26;34.60;32.80
20885;DHT22;10602;48.000;9.654;2022-07-22T15:09:54;34.20;31.20
20885;DHT22;10602;48.000;9.654;2022-07-22T15:12:21;33.90;30.60
20885;DHT22;10602;48.000;9.654;2022-07-22T15:14:49;33.80;31.20
20885;DHT22;10602;48.000;9.654;2022-07-22T15:17:16;33.80;30.60
20885;DHT22;10602;48.000;9.654;2022-07-22T15:19:44;33.50;31.90
20885;DHT22;10602;48.000;9.654;2022-07-22T15:22:11;33.50;31.60
20885;DHT22;10602;48.000;9.654;2022-07-22T15:24:39;33.50;32.40
20885;DHT22;10602;48.000;9.654;2022-07-22T15:27:06;33.60;32.40
20885;DHT22;10602;48.000;9.654;2022-07-22T15:29:34;33.50;32.20
20885;DHT22;10602;48.000;9.654;2022-07-22T15:32:02;33.60;32.40
20885;DHT22;10602;48.000;9.654;2022-07-22T15:34:31;33.60;33.00
20885;DHT22;10602;48.000;9.654;2022-07-22T15:37:02;33.20;34.00
20885;DHT22;10602;48.000;9.654;2022-07-22T15:39:29;33.50;34.20
20885;DHT22;10602;48.000;9.654;2022-07-22T15:41:57;33.70;34.40
20885;DHT22;10602;48.000;9.654;2022-07-22T15:44:24;33.80;32.50
20885;DHT22;10602;48.000;9.654;2022-07-22T15:46:52;33.80;34.00
20885;DHT22;10602;48.000;9.654;2022-07-22T15:49:22;34.00;33.10
20885;DHT22;10602;48.000;9.654;2022-07-22T15:51:49;34.10;34.20
20885;DHT22;10602;48.000;9.654;2022-07-22T15:54:17;34.10;32.70
20885;DHT22;10602;48.000;9.654;2022-07-22T15:56:44;33.90;33.00